Ncc Rabigh — HZQA — position and weather

sailwx.info

Track history (hours):
 
Tides and Currents Weather Stations Pressure Air Temp Water Temp Dewpoint Dewpoint Depression Visibility Wind Speed Wind Dir Waves Ship Positions

Ncc Rabigh

Last reported at 2016-May-05 16:07 UTC. Time now 2016-May-06 03:32 UTC.
Position N 37°30' E 015°41'.

Length 183 m; draft 8.2 m.

Type: Ship (hazmat cat A). MMSI: 403575000.

Date/timePositionNaut miles runAvg speedWind from/ knotsBaromVisibWave heightAir tempDewpointWater temp
2016-May-05 16:07N 37°30' E 015°41'0 0.4
2016-May-05 15:21N 37°30' E 015°41'1 0.4
2016-May-05 13:09N 37°29' E 015°42'0 0.5
2016-May-05 12:29N 37°30' E 015°43'0 0.3
2016-May-05 11:33N 37°30' E 015°43'1 0.7
2016-May-05 10:32N 37°30' E 015°43'3 1.3
2016-May-05 08:27N 37°31' E 015°46'1011.7
2016-May-05 07:33N 37°30' E 015°60'1211.9
2016-May-05 06:33N 37°30' E 016°15'4 1.9
2016-May-05 04:29N 37°30' E 016°19'1 1.1
2016-May-05 03:13N 37°30' E 016°18'1 1.2
2016-May-05 02:30N 37°31' E 016°17'2 1.4
2016-May-05 01:15N 37°31' E 016°15'1 1.4
2016-May-05 00:33N 37°32' E 016°14'4 1.7
2016-May-04 22:11N 37°32' E 016°09'1 1.9
2016-May-04 21:33N 37°32' E 016°07'2 1.8
2016-May-04 20:33N 37°32' E 016°05'7 7.2
2016-May-04 19:33N 37°29' E 015°56'4 3.8
2016-May-04 18:33N 37°28' E 015°52'1 0.9
2016-May-04 17:28N 37°27' E 015°52'1 0.9
2016-May-04 16:32N 37°26' E 015°51'2 0.8
2016-May-04 14:21N 37°24' E 015°52'3 1.6
2016-May-04 12:29N 37°23' E 015°55'2 1.7
2016-May-04 11:29N 37°23' E 015°58'2 0.9
2016-May-04 09:13N 37°23' E 016°00'1 1.0
2016-May-04 08:21N 37°24' E 016°00'1 1.2
2016-May-04 07:08N 37°25' E 015°59'1 1.1
2016-May-04 06:33N 37°25' E 015°59'3 0.9
2016-May-04 03:24N 37°27' E 015°56'1 0.8
2016-May-04 02:33N 37°28' E 015°56'1 0.7
2016-May-04 01:33N 37°28' E 015°55'1 0.7
2016-May-04 00:33N 37°29' E 015°54'0 0.1
2016-May-03 23:30N 37°29' E 015°54'1 0.7
2016-May-03 22:34N 37°29' E 015°55'1 0.9
2016-May-03 21:09N 37°30' E 015°56'1 1.0
2016-May-03 20:32N 37°31' E 015°57'1 1.2
2016-May-03 19:32N 37°32' E 015°58'5 5.1
2016-May-03 18:28N 37°28' E 016°03'2 0.6
2016-May-03 15:34N 37°26' E 016°03'3 1.1
2016-May-03 12:33N 37°27' E 015°59'2 0.2
2016-May-03 02:19N 37°26' E 015°60'1 1.7
2016-May-03 01:33N 37°27' E 015°59'3 1.0
2016-May-02 22:19N 37°29' E 015°56'0 0.5
2016-May-02 21:33N 37°28' E 015°56'6 5.0
2016-May-02 20:18N 37°24' E 015°50'5 0.5
2016-May-02 11:14N 37°28' E 015°52'0 0.1
2016-May-02 08:33N 37°28' E 015°52'64 6.3
2016-May-01 22:23N 38°07' E 016°57'431 9.4
2016-Apr-30 00:33N 44°30' E 012°33'1111.1
2016-Apr-29 23:33N 44°30' E 012°18'  
2016-Apr-26 00:29N 37°34' E 016°23'  
Track history (hours):
 
Tides and Currents Weather Stations Pressure Air Temp Water Temp Dewpoint Dewpoint Depression Visibility Wind Speed Wind Dir Waves Ship Positions

Ncc Rabigh

Last reported at 2016-May-05 16:07 UTC. Time now 2016-May-06 03:32 UTC.
Position N 37°30' E 015°41'.

Length 183 m; draft 8.2 m.

Type: Ship (hazmat cat A). MMSI: 403575000.

Date/timePositionNaut miles runAvg speedWind from/ knotsBaromVisibWave heightAir tempDewpointWater temp
2016-May-05 16:07N 37°30' E 015°41'0 0.4
2016-May-05 15:21N 37°30' E 015°41'1 0.4
2016-May-05 13:09N 37°29' E 015°42'0 0.5
2016-May-05 12:29N 37°30' E 015°43'0 0.3
2016-May-05 11:33N 37°30' E 015°43'1 0.7
2016-May-05 10:32N 37°30' E 015°43'3 1.3
2016-May-05 08:27N 37°31' E 015°46'1011.7
2016-May-05 07:33N 37°30' E 015°60'1211.9
2016-May-05 06:33N 37°30' E 016°15'4 1.9
2016-May-05 04:29N 37°30' E 016°19'1 1.1
2016-May-05 03:13N 37°30' E 016°18'1 1.2
2016-May-05 02:30N 37°31' E 016°17'2 1.4
2016-May-05 01:15N 37°31' E 016°15'1 1.4
2016-May-05 00:33N 37°32' E 016°14'4 1.7
2016-May-04 22:11N 37°32' E 016°09'1 1.9
2016-May-04 21:33N 37°32' E 016°07'2 1.8
2016-May-04 20:33N 37°32' E 016°05'7 7.2
2016-May-04 19:33N 37°29' E 015°56'4 3.8
2016-May-04 18:33N 37°28' E 015°52'1 0.9
2016-May-04 17:28N 37°27' E 015°52'1 0.9
2016-May-04 16:32N 37°26' E 015°51'2 0.8
2016-May-04 14:21N 37°24' E 015°52'3 1.6
2016-May-04 12:29N 37°23' E 015°55'2 1.7
2016-May-04 11:29N 37°23' E 015°58'2 0.9
2016-May-04 09:13N 37°23' E 016°00'1 1.0
2016-May-04 08:21N 37°24' E 016°00'1 1.2
2016-May-04 07:08N 37°25' E 015°59'1 1.1
2016-May-04 06:33N 37°25' E 015°59'3 0.9
2016-May-04 03:24N 37°27' E 015°56'1 0.8
2016-May-04 02:33N 37°28' E 015°56'1 0.7
2016-May-04 01:33N 37°28' E 015°55'1 0.7
2016-May-04 00:33N 37°29' E 015°54'0 0.1
2016-May-03 23:30N 37°29' E 015°54'1 0.7
2016-May-03 22:34N 37°29' E 015°55'1 0.9
2016-May-03 21:09N 37°30' E 015°56'1 1.0
2016-May-03 20:32N 37°31' E 015°57'1 1.2
2016-May-03 19:32N 37°32' E 015°58'5 5.1
2016-May-03 18:28N 37°28' E 016°03'2 0.6
2016-May-03 15:34N 37°26' E 016°03'3 1.1
2016-May-03 12:33N 37°27' E 015°59'2 0.2
2016-May-03 02:19N 37°26' E 015°60'1 1.7
2016-May-03 01:33N 37°27' E 015°59'3 1.0
2016-May-02 22:19N 37°29' E 015°56'0 0.5
2016-May-02 21:33N 37°28' E 015°56'6 5.0
2016-May-02 20:18N 37°24' E 015°50'5 0.5
2016-May-02 11:14N 37°28' E 015°52'0 0.1
2016-May-02 08:33N 37°28' E 015°52'64 6.3
2016-May-01 22:23N 38°07' E 016°57'431 9.4
2016-Apr-30 00:33N 44°30' E 012°33'1111.1
2016-Apr-29 23:33N 44°30' E 012°18'  
2016-Apr-26 00:29N 37°34' E 016°23'  

Dump ship's entire track history